Time;durP1;ratioP1;P1;durP2;ratioP2;P2;SDS_P1;SDS_P2;PMS_P1;PMS_P2;Temp;Humidity;BMP_temperature;BMP_pressure;BME280_temperature;BME280_humidity;BME280_pressure;Samples;Min_cycle;Max_cycle;Signal;HPM_P1;HPM_P2
2022/01/07 00:00:15;;;;;;;11.43;3.10;;;3.80;99.90;;;;;;4993967;28;20077;-88
2022/01/07 00:02:42;;;;;;;15.80;3.33;;;3.80;99.90;;;;;;5000187;28;20037;-88
2022/01/07 00:05:09;;;;;;;8.27;2.80;;;3.80;99.90;;;;;;4997549;28;20030;-88
2022/01/07 00:07:34;;;;;;;14.02;3.30;;;3.80;99.90;;;;;;5012772;28;20023;-88
2022/01/07 00:10:00;;;;;;;8.82;2.90;;;3.90;99.90;;;;;;5001304;28;20061;-86
2022/01/07 00:12:26;;;;;;;11.40;2.83;;;3.90;99.90;;;;;;4991595;28;20029;-87
2022/01/07 00:14:51;;;;;;;7.65;2.85;;;3.90;99.90;;;;;;4987002;28;20034;-87
2022/01/07 00:17:17;;;;;;;12.55;3.67;;;3.90;99.90;;;;;;4984343;28;20034;-88
2022/01/07 00:19:43;;;;;;;12.25;3.22;;;3.90;99.90;;;;;;4996556;28;20046;-89
2022/01/07 00:22:08;;;;;;;8.55;3.78;;;3.90;99.90;;;;;;4994025;28;20030;-88
2022/01/07 00:24:34;;;;;;;13.65;4.32;;;3.90;99.90;;;;;;4999717;28;20026;-87
2022/01/07 00:27:01;;;;;;;14.10;3.25;;;3.90;99.90;;;;;;4982476;28;20494;-88
2022/01/07 00:29:26;;;;;;;9.95;3.03;;;3.90;99.90;;;;;;4987891;28;20022;-88
2022/01/07 00:31:52;;;;;;;16.25;3.85;;;3.90;99.90;;;;;;4987907;28;20092;-88
2022/01/07 00:34:17;;;;;;;11.10;3.95;;;3.90;99.90;;;;;;4987442;28;20029;-87
2022/01/07 00:36:43;;;;;;;12.38;4.60;;;3.90;99.90;;;;;;4992497;28;20076;-87
2022/01/07 00:39:08;;;;;;;12.05;2.75;;;3.90;99.90;;;;;;4995669;28;20126;-90
2022/01/07 00:41:34;;;;;;;10.55;3.22;;;3.90;99.90;;;;;;4982409;28;20054;-90
2022/01/07 00:43:59;;;;;;;12.25;3.38;;;3.80;99.90;;;;;;4992507;28;20037;-89
2022/01/07 00:46:25;;;;;;;10.25;3.05;;;3.70;99.90;;;;;;4998348;28;20022;-87
2022/01/07 00:48:50;;;;;;;12.82;3.65;;;3.70;99.90;;;;;;4998413;28;20076;-86
2022/01/07 00:51:17;;;;;;;9.98;3.65;;;3.60;99.90;;;;;;4998772;28;20120;-87
2022/01/07 00:53:42;;;;;;;10.77;3.17;;;3.60;99.90;;;;;;4983011;28;20109;-87
2022/01/07 00:56:08;;;;;;;10.60;3.45;;;3.60;99.90;;;;;;4998534;28;20111;-90
2022/01/07 00:58:34;;;;;;;10.60;3.90;;;3.60;99.90;;;;;;4999499;28;20376;-89
2022/01/07 01:00:59;;;;;;;12.40;4.00;;;3.60;99.90;;;;;;4997999;28;20034;-89
2022/01/07 01:03:25;;;;;;;12.60;4.13;;;3.50;99.90;;;;;;4996839;28;20490;-90
2022/01/07 01:05:50;;;;;;;9.75;3.50;;;3.50;99.90;;;;;;4999579;28;20558;-92
2022/01/07 01:08:16;;;;;;;11.32;4.10;;;3.40;99.90;;;;;;4997159;28;20034;-90
2022/01/07 01:10:41;;;;;;;13.98;4.18;;;3.40;99.90;;;;;;4999306;28;20022;-90
2022/01/07 01:13:07;;;;;;;10.43;3.92;;;3.30;99.90;;;;;;4997710;28;20033;-89
2022/01/07 01:15:33;;;;;;;13.48;4.28;;;3.30;99.90;;;;;;4988463;28;20022;-88
2022/01/07 01:17:59;;;;;;;12.45;4.55;;;3.30;99.90;;;;;;4995162;28;20498;-89
2022/01/07 01:20:26;;;;;;;17.75;4.25;;;3.30;99.90;;;;;;4997763;28;20034;-90
2022/01/07 01:22:51;;;;;;;7.97;3.25;;;3.20;99.90;;;;;;4998984;28;20026;-90
2022/01/07 01:25:17;;;;;;;11.13;3.15;;;3.20;99.90;;;;;;4990846;28;20505;-89
2022/01/07 01:27:43;;;;;;;10.25;3.90;;;3.20;99.90;;;;;;4990102;28;20030;-88
2022/01/07 01:30:12;;;;;;;16.67;4.25;;;3.20;99.90;;;;;;4994363;28;20042;-89
2022/01/07 01:32:38;;;;;;;9.57;3.25;;;3.20;99.90;;;;;;4989784;28;20030;-90
2022/01/07 01:35:07;;;;;;;11.57;3.70;;;3.20;99.90;;;;;;4999062;28;20074;-89
2022/01/07 01:37:33;;;;;;;16.65;4.03;;;3.20;99.90;;;;;;4998086;28;20025;-90
2022/01/07 01:39:59;;;;;;;10.40;3.67;;;3.20;99.90;;;;;;4998499;28;20030;-88
2022/01/07 01:42:25;;;;;;;15.38;4.32;;;3.20;99.90;;;;;;4988371;28;20023;-89
2022/01/07 01:44:51;;;;;;;11.38;3.25;;;3.20;99.90;;;;;;4998447;28;20029;-89
2022/01/07 01:47:16;;;;;;;13.15;3.53;;;3.20;99.90;;;;;;4993538;28;20033;-88
2022/01/07 01:49:42;;;;;;;13.90;3.72;;;3.30;99.90;;;;;;5002206;28;20026;-89
2022/01/07 01:52:08;;;;;;;13.75;3.78;;;3.30;99.90;;;;;;4997706;28;20141;-89
2022/01/07 01:54:33;;;;;;;9.27;3.72;;;3.30;99.90;;;;;;4997257;28;20030;-89
2022/01/07 01:56:59;;;;;;;10.40;3.13;;;3.30;99.90;;;;;;4997468;28;20022;-89
2022/01/07 01:59:28;;;;;;;17.77;3.03;;;3.30;99.90;;;;;;4994385;28;20418;-89
2022/01/07 02:01:54;;;;;;;11.70;3.55;;;3.40;99.90;;;;;;4997557;28;20029;-88
2022/01/07 02:04:21;;;;;;;14.02;3.60;;;3.40;99.90;;;;;;5014598;28;20101;-89
2022/01/07 02:06:47;;;;;;;13.40;2.63;;;3.40;99.90;;;;;;5012792;28;20482;-89
2022/01/07 02:09:13;;;;;;;7.50;2.80;;;3.50;99.90;;;;;;5001270;28;20030;-89
2022/01/07 02:11:38;;;;;;;15.18;3.10;;;3.50;99.90;;;;;;5014797;28;20040;-91
2022/01/07 02:14:04;;;;;;;8.05;3.13;;;3.50;99.90;;;;;;4994047;28;20112;-89
2022/01/07 02:16:29;;;;;;;12.20;2.97;;;3.50;99.90;;;;;;5009168;28;20043;-89
2022/01/07 02:18:55;;;;;;;10.07;2.53;;;3.50;99.90;;;;;;5006917;28;20099;-89
2022/01/07 02:21:21;;;;;;;6.13;2.42;;;3.50;99.90;;;;;;4990490;28;20018;-90
2022/01/07 02:23:47;;;;;;;7.10;2.47;;;3.50;99.90;;;;;;4995876;28;20022;-88
2022/01/07 02:26:13;;;;;;;16.60;3.08;;;3.50;99.90;;;;;;4995532;28;20038;-90
2022/01/07 02:28:40;;;;;;;10.93;3.00;;;3.50;99.90;;;;;;4994626;28;20029;-90
2022/01/07 02:31:08;;;;;;;14.38;2.53;;;3.50;99.90;;;;;;4994044;28;20109;-90
2022/01/07 02:33:33;;;;;;;6.18;2.45;;;3.50;99.90;;;;;;4986954;28;20391;-89
2022/01/07 02:36:06;;;;;;;10.90;2.88;;;3.50;99.90;;;;;;4993523;28;20034;-90
2022/01/07 02:38:31;;;;;;;14.15;3.22;;;3.50;99.90;;;;;;4996774;28;20044;-90
2022/01/07 02:40:57;;;;;;;11.90;2.75;;;3.50;99.90;;;;;;4986190;28;20034;-90
2022/01/07 02:43:22;;;;;;;11.55;3.22;;;3.50;99.90;;;;;;4992019;28;20125;-89
2022/01/07 02:45:48;;;;;;;11.15;2.72;;;3.50;99.90;;;;;;4994548;28;20482;-90
2022/01/07 02:48:13;;;;;;;8.63;2.38;;;3.40;99.90;;;;;;4993651;28;20037;-91
2022/01/07 02:50:39;;;;;;;10.93;2.85;;;3.40;99.90;;;;;;5003942;28;20018;-90
2022/01/07 02:53:07;;;;;;;7.45;2.60;;;3.40;99.90;;;;;;5015239;28;20086;-90
2022/01/07 02:55:33;;;;;;;8.75;2.70;;;3.40;99.90;;;;;;4997380;28;20048;-89
2022/01/07 02:57:59;;;;;;;9.75;2.25;;;3.50;99.90;;;;;;5014829;28;20482;-91
2022/01/07 03:00:26;;;;;;;9.60;2.25;;;3.50;99.90;;;;;;5013933;28;20070;-90
2022/01/07 03:02:56;;;;;;;6.80;1.85;;;3.50;99.90;;;;;;5015341;28;20498;-90
2022/01/07 03:05:21;;;;;;;8.65;1.75;;;3.50;99.90;;;;;;4997930;28;20405;-89
2022/01/07 03:07:48;;;;;;;6.07;1.98;;;3.50;99.90;;;;;;4991640;28;20030;-90
2022/01/07 03:10:19;;;;;;;8.20;2.17;;;3.40;99.90;;;;;;4992603;28;20033;-89
2022/01/07 03:12:44;;;;;;;11.55;2.13;;;3.50;99.90;;;;;;4996542;28;20104;-89
2022/01/07 03:15:11;;;;;;;6.00;1.90;;;3.50;99.90;;;;;;4995926;28;20057;-90
2022/01/07 03:17:39;;;;;;;13.90;2.28;;;3.40;99.90;;;;;;4996116;28;20515;-89
2022/01/07 03:20:07;;;;;;;8.38;2.10;;;3.40;99.90;;;;;;5001338;28;20049;-89
2022/01/07 03:22:33;;;;;;;6.55;1.98;;;3.40;99.90;;;;;;5001666;28;20029;-89
2022/01/07 03:24:58;;;;;;;7.70;1.90;;;3.40;99.90;;;;;;5000985;28;20026;-89
2022/01/07 03:27:24;;;;;;;8.40;2.13;;;3.30;99.90;;;;;;5000864;28;20478;-90
2022/01/07 03:29:49;;;;;;;14.73;2.67;;;3.40;99.90;;;;;;4992857;28;20089;-90
2022/01/07 03:32:15;;;;;;;4.03;1.88;;;3.30;99.90;;;;;;4997384;28;20030;-89
2022/01/07 03:34:41;;;;;;;8.00;1.85;;;3.20;99.90;;;;;;4999539;28;20030;-90
2022/01/07 03:37:06;;;;;;;6.05;2.88;;;3.20;99.90;;;;;;4988411;28;20048;-89
2022/01/07 03:39:32;;;;;;;6.13;2.05;;;3.20;99.90;;;;;;4992763;28;20049;-89
2022/01/07 03:41:57;;;;;;;9.80;3.20;;;3.20;99.90;;;;;;4997792;28;20034;-90
2022/01/07 03:44:23;;;;;;;9.48;2.35;;;3.10;99.90;;;;;;4997983;28;20022;-90
2022/01/07 03:46:48;;;;;;;8.07;2.10;;;3.10;99.90;;;;;;5013231;28;20092;-90
2022/01/07 03:49:14;;;;;;;5.82;2.28;;;3.10;99.90;;;;;;4990858;28;20037;-89
2022/01/07 03:51:39;;;;;;;7.03;2.20;;;3.10;99.90;;;;;;4991480;28;20023;-90
2022/01/07 03:54:05;;;;;;;6.95;1.98;;;3.10;99.90;;;;;;4997676;28;20033;-89
2022/01/07 03:56:32;;;;;;;8.20;2.17;;;3.10;99.90;;;;;;4999901;28;20058;-90
2022/01/07 03:58:58;;;;;;;7.35;2.50;;;3.10;99.90;;;;;;5016940;28;20030;-90
2022/01/07 04:01:23;;;;;;;12.77;3.03;;;3.10;99.90;;;;;;5014190;28;20034;-91
2022/01/07 04:03:49;;;;;;;7.07;2.33;;;3.10;99.90;;;;;;5014051;28;20024;-90
2022/01/07 04:06:20;;;;;;;10.00;2.10;;;3.10;99.90;;;;;;5007576;28;20115;-90
2022/01/07 04:08:48;;;;;;;6.40;3.20;;;3.10;99.90;;;;;;4994217;28;20030;-91
2022/01/07 04:11:14;;;;;;;7.60;2.60;;;3.10;99.90;;;;;;5000232;28;20029;-91
2022/01/07 04:13:40;;;;;;;7.88;2.50;;;3.10;99.90;;;;;;5016702;28;20029;-91
2022/01/07 04:16:06;;;;;;;14.02;3.35;;;3.10;99.90;;;;;;4993611;28;20046;-90
2022/01/07 04:18:32;;;;;;;6.57;2.45;;;3.10;99.90;;;;;;4996226;28;20047;-91
2022/01/07 04:20:57;;;;;;;8.93;3.20;;;3.10;99.90;;;;;;5000187;28;20088;-90
2022/01/07 04:23:23;;;;;;;7.15;3.15;;;3.10;99.90;;;;;;4999660;28;20028;-91
2022/01/07 04:25:48;;;;;;;6.78;2.35;;;3.10;99.90;;;;;;4997926;28;20030;-91
2022/01/07 04:28:14;;;;;;;11.65;3.25;;;3.00;99.90;;;;;;5000450;28;20018;-92
2022/01/07 04:30:42;;;;;;;6.55;2.63;;;3.00;99.90;;;;;;4998281;28;20034;-89
2022/01/07 04:33:11;;;;;;;10.52;3.00;;;3.00;99.90;;;;;;4998885;28;20078;-91
2022/01/07 04:35:37;;;;;;;8.30;2.70;;;3.10;99.90;;;;;;4999852;28;20021;-90
2022/01/07 04:38:04;;;;;;;8.30;2.40;;;3.10;99.90;;;;;;4996341;28;20014;-90
2022/01/07 04:40:30;;;;;;;11.77;2.83;;;3.10;99.90;;;;;;4997193;28;20056;-90
2022/01/07 04:42:56;;;;;;;6.00;2.78;;;3.10;99.90;;;;;;4997407;28;20090;-91
2022/01/07 04:45:22;;;;;;;6.82;2.45;;;3.10;99.90;;;;;;4999497;28;20548;-90
2022/01/07 04:47:48;;;;;;;8.75;3.42;;;3.10;99.90;;;;;;4994625;28;20035;-90
2022/01/07 04:50:16;;;;;;;7.80;2.88;;;3.10;99.90;;;;;;5000869;28;20045;-91
2022/01/07 04:52:45;;;;;;;6.63;2.83;;;3.10;99.90;;;;;;5001848;28;20046;-91
2022/01/07 04:55:16;;;;;;;6.20;2.80;;;3.10;99.90;;;;;;4998770;28;20026;-90
2022/01/07 04:57:43;;;;;;;9.80;3.35;;;3.20;99.90;;;;;;4997063;28;20034;-91
2022/01/07 05:00:09;;;;;;;8.65;3.40;;;3.10;99.90;;;;;;4999062;28;20040;-91
2022/01/07 05:02:35;;;;;;;5.60;3.13;;;3.20;99.90;;;;;;4999262;28;20071;-90
2022/01/07 05:05:00;;;;;;;7.93;3.42;;;3.20;99.90;;;;;;4999074;28;20076;-91
2022/01/07 05:07:26;;;;;;;5.82;3.08;;;3.20;99.90;;;;;;4998826;28;20022;-90
2022/01/07 05:09:52;;;;;;;8.40;3.50;;;3.20;99.90;;;;;;4998363;28;20045;-90
2022/01/07 05:12:17;;;;;;;5.72;3.60;;;3.30;99.90;;;;;;4993171;28;20053;-89
2022/01/07 05:14:43;;;;;;;7.55;2.88;;;3.30;99.90;;;;;;4999727;28;20084;-90
2022/01/07 05:17:08;;;;;;;5.88;3.25;;;3.30;99.90;;;;;;4998485;28;20033;-88
2022/01/07 05:19:34;;;;;;;6.13;3.50;;;3.30;99.90;;;;;;4998689;28;20044;-88
2022/01/07 05:21:59;;;;;;;9.63;3.95;;;3.30;99.90;;;;;;4998182;28;20030;-89
2022/01/07 05:24:25;;;;;;;10.15;4.30;;;3.40;99.90;;;;;;4997885;28;20026;-89
2022/01/07 05:26:50;;;;;;;8.85;3.60;;;3.40;99.90;;;;;;4984320;28;20066;-88
2022/01/07 05:29:16;;;;;;;8.77;4.28;;;3.50;99.90;;;;;;4998124;28;20584;-88
2022/01/07 05:31:41;;;;;;;8.25;3.42;;;3.50;99.90;;;;;;4998016;28;20532;-88
2022/01/07 05:34:07;;;;;;;9.88;4.95;;;3.50;99.90;;;;;;4997924;28;20394;-88
2022/01/07 05:36:33;;;;;;;6.05;3.78;;;3.50;99.90;;;;;;4996033;28;20026;-88
2022/01/07 05:38:58;;;;;;;7.13;3.85;;;3.60;99.90;;;;;;4997648;28;20096;-88
2022/01/07 05:41:24;;;;;;;6.80;4.32;;;3.60;99.90;;;;;;4997455;28;20052;-88
2022/01/07 05:43:49;;;;;;;11.48;4.78;;;3.60;99.90;;;;;;5016046;28;20034;-88
2022/01/07 05:46:16;;;;;;;9.23;4.00;;;3.60;99.90;;;;;;4998228;28;20052;-88
2022/01/07 05:48:45;;;;;;;8.63;4.80;;;3.70;99.90;;;;;;5007258;28;20540;-89
2022/01/07 05:51:12;;;;;;;10.10;5.05;;;3.70;99.90;;;;;;4991587;28;20410;-89
2022/01/07 05:53:38;;;;;;;8.93;4.90;;;3.70;99.90;;;;;;4998281;28;20033;-87
2022/01/07 05:56:04;;;;;;;10.13;4.88;;;3.70;99.90;;;;;;5015681;28;20025;-88
2022/01/07 05:58:30;;;;;;;12.00;5.78;;;3.80;99.90;;;;;;4997753;28;20026;-88
2022/01/07 06:00:55;;;;;;;12.27;6.82;;;3.80;99.90;;;;;;5003603;28;20442;-87
2022/01/07 06:03:21;;;;;;;11.63;5.93;;;3.90;99.90;;;;;;4994836;28;20023;-87
2022/01/07 06:05:46;;;;;;;15.73;6.32;;;3.90;99.90;;;;;;4987320;28;20025;-88
2022/01/07 06:08:12;;;;;;;10.80;5.68;;;4.00;99.90;;;;;;4996712;28;20030;-91
2022/01/07 06:10:38;;;;;;;13.48;6.47;;;3.90;99.90;;;;;;4994399;28;20025;-89
2022/01/07 06:13:03;;;;;;;14.75;7.05;;;4.00;99.90;;;;;;4996665;28;20036;-89
2022/01/07 06:15:29;;;;;;;9.32;5.57;;;4.00;99.90;;;;;;4989336;28;20023;-88
2022/01/07 06:17:55;;;;;;;12.07;6.80;;;4.10;99.90;;;;;;4997527;28;20077;-87
2022/01/07 06:20:21;;;;;;;9.57;5.93;;;4.00;99.90;;;;;;5011139;28;20076;-88
2022/01/07 06:22:47;;;;;;;13.93;6.20;;;4.10;99.90;;;;;;5013168;28;20022;-88
2022/01/07 06:25:13;;;;;;;11.07;6.72;;;4.10;99.90;;;;;;4995329;28;20046;-87
2022/01/07 06:27:41;;;;;;;14.18;7.03;;;4.10;99.90;;;;;;4991494;28;20122;-88
2022/01/07 06:30:07;;;;;;;13.82;7.30;;;4.10;99.90;;;;;;5006959;28;20037;-87
2022/01/07 06:32:33;;;;;;;12.45;7.00;;;4.10;99.90;;;;;;4996537;28;20025;-87
2022/01/07 06:34:59;;;;;;;17.50;8.63;;;4.10;99.90;;;;;;4995140;28;20454;-87
2022/01/07 06:37:24;;;;;;;16.90;8.15;;;4.20;99.90;;;;;;4995840;28;20117;-86
2022/01/07 06:39:50;;;;;;;15.57;7.78;;;4.20;99.90;;;;;;4996229;28;20041;-87
2022/01/07 06:42:15;;;;;;;18.55;8.68;;;4.20;99.90;;;;;;4997053;28;20034;-86
2022/01/07 06:44:41;;;;;;;14.68;8.32;;;4.20;99.90;;;;;;4997062;28;20034;-88
2022/01/07 06:47:07;;;;;;;11.60;7.30;;;4.20;99.90;;;;;;4995442;28;20076;-88
2022/01/07 06:49:32;;;;;;;15.80;8.65;;;4.20;99.90;;;;;;4993334;28;20023;-87
2022/01/07 06:51:58;;;;;;;16.63;7.85;;;4.30;99.90;;;;;;4996103;28;20057;-87
2022/01/07 06:54:24;;;;;;;13.50;8.38;;;4.30;99.90;;;;;;4994554;28;20102;-87
2022/01/07 06:56:50;;;;;;;16.00;8.30;;;4.30;99.90;;;;;;4994743;28;20022;-87
2022/01/07 06:59:16;;;;;;;22.48;9.60;;;4.30;99.90;;;;;;4985747;28;20045;-87
2022/01/07 07:01:42;;;;;;;14.63;8.65;;;4.40;99.90;;;;;;4993040;28;20028;-87
2022/01/07 07:04:08;;;;;;;16.63;8.70;;;4.40;99.90;;;;;;4993076;28;20060;-88
2022/01/07 07:06:34;;;;;;;15.88;9.10;;;4.40;99.90;;;;;;4992407;28;20026;-88
2022/01/07 07:09:00;;;;;;;16.92;9.32;;;4.40;99.90;;;;;;4995526;28;20044;-88
2022/01/07 07:11:26;;;;;;;16.42;9.27;;;4.40;99.90;;;;;;4994843;28;20394;-88
2022/01/07 07:13:51;;;;;;;17.52;9.32;;;4.40;99.90;;;;;;4995888;28;20121;-89
2022/01/07 07:16:17;;;;;;;17.67;8.93;;;4.40;99.90;;;;;;5004095;28;20034;-89
2022/01/07 07:18:43;;;;;;;14.88;8.50;;;4.50;99.90;;;;;;4984845;28;20092;-89
2022/01/07 07:21:08;;;;;;;14.88;8.45;;;4.50;99.90;;;;;;4987375;28;20037;-89
2022/01/07 07:23:34;;;;;;;19.67;9.02;;;4.50;99.90;;;;;;4991404;28;20029;-89
2022/01/07 07:25:59;;;;;;;18.40;9.73;;;4.50;99.90;;;;;;4994475;28;20026;-89
2022/01/07 07:28:25;;;;;;;19.40;8.23;;;4.50;99.90;;;;;;4992473;28;20018;-89
2022/01/07 07:30:53;;;;;;;17.23;8.82;;;4.60;99.90;;;;;;4994744;28;20030;-89
2022/01/07 07:38:32;;;;;;;18.95;9.48;;;4.60;99.90;;;;;;5007673;28;20040;-89
2022/01/07 07:40:57;;;;;;;16.63;8.77;;;4.60;99.90;;;;;;4988565;28;20022;-89
2022/01/07 07:43:23;;;;;;;16.95;8.80;;;4.60;99.90;;;;;;5000150;28;20088;-90
2022/01/07 07:45:48;;;;;;;17.08;8.88;;;4.60;99.90;;;;;;4991914;28;20026;-88
2022/01/07 07:48:14;;;;;;;23.65;9.57;;;4.70;99.90;;;;;;4994016;28;20022;-88
2022/01/07 07:50:39;;;;;;;17.60;8.73;;;4.70;99.90;;;;;;4991450;28;20029;-88
2022/01/07 07:53:05;;;;;;;15.90;8.77;;;4.70;99.90;;;;;;4987896;28;20018;-88
2022/01/07 07:55:31;;;;;;;17.20;9.95;;;4.70;99.90;;;;;;4986287;28;20395;-87
2022/01/07 07:57:56;;;;;;;20.13;10.02;;;4.70;99.90;;;;;;4992638;28;20027;-88
2022/01/07 08:00:22;;;;;;;17.65;9.13;;;4.70;99.90;;;;;;4992220;28;20141;-88
2022/01/07 08:02:48;;;;;;;15.63;9.68;;;4.70;99.90;;;;;;4990362;28;20030;-88
2022/01/07 08:05:13;;;;;;;20.17;10.10;;;4.80;99.90;;;;;;4992260;28;20022;-88
2022/01/07 08:07:39;;;;;;;14.75;10.13;;;4.80;99.90;;;;;;4991607;28;20022;-88
2022/01/07 08:10:05;;;;;;;15.82;9.40;;;4.80;99.90;;;;;;4986577;28;20399;-88
2022/01/07 08:12:52;;;;;;;19.75;9.45;;;4.80;99.90;;;;;;4992680;28;20080;-89
2022/01/07 08:18:00;;;;;;;14.18;8.93;;;4.80;99.90;;;;;;5007386;28;20053;-88
2022/01/07 08:20:25;;;;;;;19.52;10.18;;;4.90;99.90;;;;;;4991365;28;20047;-88
2022/01/07 08:22:51;;;;;;;17.92;9.25;;;4.90;99.90;;;;;;4994415;28;20030;-88
2022/01/07 08:25:16;;;;;;;14.00;9.55;;;4.90;99.90;;;;;;4992098;28;20425;-87
2022/01/07 08:27:42;;;;;;;17.08;9.55;;;4.90;99.90;;;;;;4989995;28;20120;-90
2022/01/07 08:30:15;;;;;;;19.80;9.88;;;4.90;99.90;;;;;;4995237;28;20080;-88
2022/01/07 08:35:27;;;;;;;14.77;9.23;;;5.00;99.90;;;;;;5003951;28;20045;-87
2022/01/07 08:37:52;;;;;;;19.35;10.18;;;5.00;99.90;;;;;;4992555;28;20034;-88
2022/01/07 08:40:18;;;;;;;19.52;10.35;;;5.00;99.90;;;;;;4984556;28;20045;-87
2022/01/07 08:42:44;;;;;;;15.07;9.35;;;5.00;99.90;;;;;;4991904;28;20037;-87
2022/01/07 08:45:09;;;;;;;19.67;9.77;;;5.00;99.90;;;;;;4988309;28;20022;-87
2022/01/07 08:47:35;;;;;;;17.55;9.38;;;5.10;99.90;;;;;;4991754;28;20022;-87
2022/01/07 08:50:01;;;;;;;16.98;10.43;;;5.10;99.90;;;;;;4987912;28;20030;-87
2022/01/07 08:52:26;;;;;;;18.08;10.82;;;5.10;99.90;;;;;;4993960;28;20116;-88
2022/01/07 08:54:52;;;;;;;16.17;9.65;;;5.20;99.90;;;;;;5001451;28;20125;-89
2022/01/07 08:57:21;;;;;;;20.85;10.10;;;5.20;99.90;;;;;;4994987;28;20097;-88
2022/01/07 08:59:51;;;;;;;20.63;10.43;;;5.20;99.90;;;;;;4989480;28;20034;-88
2022/01/07 09:02:17;;;;;;;17.52;9.60;;;5.30;99.90;;;;;;4996619;28;20033;-87
2022/01/07 09:04:43;;;;;;;18.65;9.75;;;5.30;99.90;;;;;;4994214;28;20486;-88
2022/01/07 09:07:08;;;;;;;17.05;10.10;;;5.20;99.90;;;;;;4991798;28;20084;-87
2022/01/07 09:09:34;;;;;;;20.52;9.27;;;5.20;99.90;;;;;;4987377;28;20332;-87
2022/01/07 09:12:00;;;;;;;21.10;9.38;;;5.10;99.90;;;;;;4986748;28;20026;-86
2022/01/07 09:14:25;;;;;;;16.10;9.20;;;5.10;99.90;;;;;;4993439;28;20474;-87
2022/01/07 09:16:51;;;;;;;16.23;9.25;;;5.00;99.90;;;;;;4985758;28;20036;-88
2022/01/07 09:19:16;;;;;;;17.83;8.93;;;5.00;99.90;;;;;;4989738;28;20390;-87
2022/01/07 09:21:42;;;;;;;14.77;8.15;;;5.00;99.90;;;;;;4993852;28;20034;-87
2022/01/07 09:24:08;;;;;;;21.98;10.05;;;5.00;99.90;;;;;;5001850;28;20023;-89
2022/01/07 09:26:34;;;;;;;18.15;8.90;;;4.90;99.90;;;;;;4989521;28;20475;-88
2022/01/07 09:28:59;;;;;;;14.27;9.35;;;4.90;99.90;;;;;;5003418;28;20088;-87
2022/01/07 09:31:25;;;;;;;12.20;8.05;;;4.80;99.90;;;;;;5000606;28;20022;-88
2022/01/07 09:33:51;;;;;;;15.95;8.85;;;4.80;99.90;;;;;;4994699;28;20030;-88
2022/01/07 09:36:16;;;;;;;19.23;8.18;;;4.80;99.90;;;;;;4999000;28;20483;-88
2022/01/07 09:38:42;;;;;;;14.32;8.55;;;4.80;99.90;;;;;;4988366;28;20026;-88
2022/01/07 09:41:07;;;;;;;16.00;8.60;;;4.80;99.90;;;;;;4978703;28;20022;-87
2022/01/07 09:43:33;;;;;;;20.15;10.40;;;4.80;99.90;;;;;;4998286;28;20063;-88
2022/01/07 09:46:00;;;;;;;16.90;9.57;;;4.90;99.90;;;;;;5003374;28;20026;-88
2022/01/07 09:48:25;;;;;;;15.77;8.65;;;4.90;99.90;;;;;;5003081;28;20045;-88
2022/01/07 09:50:51;;;;;;;15.35;9.27;;;5.00;99.90;;;;;;4989287;28;20068;-86
2022/01/07 09:53:17;;;;;;;11.77;8.68;;;5.10;99.90;;;;;;4987756;28;20030;-86
2022/01/07 09:55:44;;;;;;;20.70;9.20;;;5.10;99.90;;;;;;4990688;28;20384;-87
2022/01/07 09:58:12;;;;;;;17.27;9.15;;;5.10;99.90;;;;;;4994730;28;20037;-87
2022/01/07 10:00:41;;;;;;;20.85;9.65;;;5.10;99.90;;;;;;4991429;28;20038;-87
2022/01/07 10:03:09;;;;;;;15.50;8.82;;;5.30;99.90;;;;;;4994975;28;20022;-86
2022/01/07 10:05:46;;;;;;;15.02;8.63;;;5.30;99.90;;;;;;4993182;28;20030;-85
2022/01/07 10:08:19;;;;;;;16.13;9.38;;;5.40;99.90;;;;;;4997346;28;20030;-86
2022/01/07 10:10:45;;;;;;;16.45;9.35;;;5.40;99.90;;;;;;5007466;28;20056;-86
2022/01/07 10:13:11;;;;;;;18.65;8.65;;;5.50;99.90;;;;;;4994306;28;20030;-86
2022/01/07 10:15:39;;;;;;;15.90;8.85;;;5.70;99.90;;;;;;5011386;28;20030;-87
2022/01/07 10:18:04;;;;;;;17.20;8.63;;;5.70;99.90;;;;;;4994212;28;20065;-86
2022/01/07 10:20:50;;;;;;;13.82;8.05;;;5.80;99.90;;;;;;4993527;28;20116;-87
2022/01/07 10:23:24;;;;;;;23.27;8.48;;;5.90;99.90;;;;;;4993996;28;20091;-86
2022/01/07 10:25:56;;;;;;;13.82;8.18;;;6.00;99.90;;;;;;4989374;28;20034;-86
2022/01/07 10:28:29;;;;;;;12.32;6.78;;;6.10;99.90;;;;;;4995929;28;20104;-86
2022/01/07 10:30:55;;;;;;;14.18;6.63;;;6.10;99.90;;;;;;4991363;28;20032;-86
2022/01/07 10:33:29;;;;;;;15.82;6.57;;;6.10;99.90;;;;;;4987153;28;20038;-86
2022/01/07 10:36:10;;;;;;;13.68;5.97;;;6.00;99.90;;;;;;4994690;28;20038;-86
2022/01/07 10:38:57;;;;;;;14.13;6.05;;;6.00;99.90;;;;;;4992047;28;20034;-87
2022/01/07 10:41:23;;;;;;;12.48;6.13;;;6.10;99.90;;;;;;4987405;28;20026;-87
2022/01/07 10:43:51;;;;;;;13.00;5.70;;;6.10;99.90;;;;;;4983747;28;20026;-87
2022/01/07 10:46:25;;;;;;;13.55;5.95;;;6.20;99.90;;;;;;4981487;28;20189;-86
2022/01/07 10:48:57;;;;;;;16.40;5.30;;;6.30;99.90;;;;;;4989670;28;20091;-87
2022/01/07 10:51:25;;;;;;;11.55;5.20;;;6.30;99.90;;;;;;4986788;28;20503;-87
2022/01/07 10:53:54;;;;;;;11.05;5.32;;;6.40;99.90;;;;;;4992914;28;20041;-87
2022/01/07 10:56:22;;;;;;;7.88;4.95;;;6.50;99.90;;;;;;4993326;28;20486;-87
2022/01/07 10:58:55;;;;;;;16.45;6.75;;;6.60;99.90;;;;;;5010662;28;20029;-87
2022/01/07 11:01:21;;;;;;;18.33;6.07;;;6.70;99.90;;;;;;5008506;28;20125;-87
2022/01/07 11:03:47;;;;;;;10.35;5.43;;;6.70;99.90;;;;;;5012981;28;20057;-87
2022/01/07 11:06:13;;;;;;;12.02;5.32;;;6.70;99.90;;;;;;4993510;28;20033;-86
2022/01/07 11:08:40;;;;;;;11.43;5.13;;;6.80;99.90;;;;;;5008785;28;20056;-87
2022/01/07 11:11:05;;;;;;;11.25;4.90;;;6.80;99.90;;;;;;5003851;28;20108;-87
2022/01/07 11:13:34;;;;;;;12.43;5.40;;;6.80;99.90;;;;;;4986120;28;20100;-86
2022/01/07 11:16:00;;;;;;;12.35;5.03;;;6.90;99.90;;;;;;4989785;28;20045;-86
2022/01/07 11:18:25;;;;;;;10.45;5.20;;;7.00;99.90;;;;;;4991668;28;20092;-86
2022/01/07 11:20:51;;;;;;;13.50;4.32;;;7.00;99.90;;;;;;4988412;28;20034;-87
2022/01/07 11:23:17;;;;;;;12.07;4.22;;;6.90;99.90;;;;;;4991231;28;20478;-86
2022/01/07 11:25:42;;;;;;;12.57;4.40;;;6.80;99.90;;;;;;4993557;28;20022;-86
2022/01/07 11:28:18;;;;;;;10.70;4.60;;;6.80;99.90;;;;;;4983828;28;20053;-86
2022/01/07 11:30:46;;;;;;;10.95;3.80;;;6.70;99.90;;;;;;4978840;28;20538;-87
2022/01/07 11:33:22;;;;;;;10.52;4.07;;;6.70;99.90;;;;;;4988580;28;20391;-86
2022/01/07 11:35:48;;;;;;;9.35;4.03;;;6.80;99.90;;;;;;4996269;28;20030;-86
2022/01/07 11:38:37;;;;;;;12.00;4.05;;;6.80;99.90;;;;;;4993888;28;20063;-86
2022/01/07 11:41:11;;;;;;;7.47;3.50;;;6.80;99.90;;;;;;4997992;28;20038;-87
2022/01/07 11:43:40;;;;;;;9.45;2.92;;;6.80;99.90;;;;;;4985923;28;20019;-87
2022/01/07 11:46:24;;;;;;;7.85;3.08;;;6.80;99.90;;;;;;4996139;28;20026;-86
2022/01/07 11:48:50;;;;;;;8.15;3.45;;;6.70;99.90;;;;;;5007419;28;20112;-85
2022/01/07 11:51:17;;;;;;;10.95;3.15;;;6.70;99.90;;;;;;4994845;28;20165;-86
2022/01/07 11:53:48;;;;;;;10.60;2.33;;;6.70;99.90;;;;;;4991466;28;20026;-87
2022/01/07 11:56:22;;;;;;;6.75;2.78;;;6.80;99.90;;;;;;5011898;28;20037;-88
2022/01/07 11:58:51;;;;;;;10.30;2.92;;;6.80;99.90;;;;;;4993870;28;20116;-88
2022/01/07 12:01:34;;;;;;;13.32;3.65;;;6.80;99.90;;;;;;4992135;28;20062;-87
2022/01/07 12:04:22;;;;;;;;;;;6.80;99.90;;;;;;5011663;28;20032;-86
2022/01/07 12:06:50;;;;;;;12.20;3.22;;;6.80;99.90;;;;;;4992560;28;19913;-87
2022/01/07 12:09:20;;;;;;;8.35;3.00;;;6.80;99.90;;;;;;5014473;28;20470;-87
2022/01/07 12:12:08;;;;;;;9.48;2.97;;;6.80;99.90;;;;;;4999000;28;20022;-87
2022/01/07 12:14:39;;;;;;;13.55;3.53;;;6.90;99.90;;;;;;4995262;28;20022;-88
2022/01/07 12:17:11;;;;;;;12.25;3.55;;;6.90;99.90;;;;;;4995771;28;20106;-87
2022/01/07 12:19:37;;;;;;;11.35;3.00;;;6.90;99.90;;;;;;4989673;28;20093;-86
2022/01/07 12:22:07;;;;;;;15.00;3.00;;;6.80;99.90;;;;;;4989621;28;20030;-87
2022/01/07 12:24:33;;;;;;;9.63;3.75;;;6.80;99.90;;;;;;4994204;28;20094;-88
2022/01/07 12:27:11;;;;;;;14.60;3.97;;;6.80;99.90;;;;;;4988810;28;20058;-88
2022/01/07 12:29:39;;;;;;;10.65;3.90;;;6.80;99.90;;;;;;5003141;28;20033;-87
2022/01/07 12:32:07;;;;;;;11.63;3.65;;;6.90;99.90;;;;;;5009571;28;20057;-88
2022/01/07 12:34:40;;;;;;;10.93;3.60;;;6.90;99.90;;;;;;4994283;28;20034;-88
2022/01/07 12:37:08;;;;;;;13.65;3.83;;;6.90;99.90;;;;;;4983528;28;20026;-86
2022/01/07 12:39:36;;;;;;;9.38;3.08;;;6.90;99.90;;;;;;4994201;28;20038;-86
2022/01/07 12:42:03;;;;;;;13.30;3.80;;;6.90;99.90;;;;;;4992643;28;20030;-86
2022/01/07 12:44:44;;;;;;;10.90;3.47;;;6.90;99.90;;;;;;4991209;28;20034;-86
2022/01/07 12:47:14;;;;;;;8.05;3.05;;;7.00;99.90;;;;;;4994662;28;20553;-86
2022/01/07 12:49:45;;;;;;;11.55;3.47;;;7.00;99.90;;;;;;4988961;28;20475;-88
2022/01/07 12:52:29;;;;;;;7.85;3.22;;;7.00;99.90;;;;;;4991586;28;20546;-87
2022/01/07 12:54:56;;;;;;;6.60;3.17;;;6.90;99.90;;;;;;4995217;28;20047;-87
2022/01/07 12:57:35;;;;;;;8.13;3.85;;;6.90;99.90;;;;;;4991101;28;20034;-88
2022/01/07 13:00:17;;;;;;;9.45;3.63;;;6.90;99.90;;;;;;4991899;28;20037;-87